createdAt,value
2024-03-23T00:00:43.353Z,-31.6
2024-03-23T00:06:02.502Z,-29.3
2024-03-23T00:11:21.479Z,-29.7
2024-03-23T00:16:40.594Z,-29.1
2024-03-23T00:21:59.482Z,-28.8
2024-03-23T00:27:19.770Z,-29.1
2024-03-23T00:32:38.455Z,-29.5
2024-03-23T00:37:58.624Z,-29.2
2024-03-23T00:43:17.126Z,-29.3
2024-03-23T00:48:37.550Z,-29.1
2024-03-23T00:53:56.358Z,-29.8
2024-03-23T00:59:14.537Z,-29.7
2024-03-23T01:04:33.729Z,-29.2
2024-03-23T01:09:53.669Z,-29.9
2024-03-23T01:15:13.225Z,-29.8
2024-03-23T01:20:32.809Z,-28.9
2024-03-23T01:25:52.426Z,-29.4
2024-03-23T01:31:11.494Z,-29.3
2024-03-23T01:36:30.351Z,-30
2024-03-23T01:41:49.154Z,-29.1
2024-03-23T01:47:08.013Z,-29.4
2024-03-23T01:52:26.848Z,-29.6
2024-03-23T01:57:46.479Z,-29.4
2024-03-23T02:03:05.228Z,-29.4
2024-03-23T02:08:24.714Z,-29.8
2024-03-23T02:13:44.493Z,-29.2
2024-03-23T02:19:03.738Z,-29.3
2024-03-23T02:24:23.177Z,-30.1
2024-03-23T02:29:42.277Z,-29.5
2024-03-23T02:35:01.330Z,-29.9
2024-03-23T02:40:20.823Z,-29.1
2024-03-23T02:45:40.262Z,-29.5
2024-03-23T02:50:59.860Z,-29.3
2024-03-23T03:01:38.062Z,-29.7
2024-03-23T03:06:57.293Z,-30
2024-03-23T03:12:17.240Z,-29.6
2024-03-23T03:17:36.934Z,-29.5
2024-03-23T03:22:55.966Z,-29.9
2024-03-23T03:28:15.662Z,-29.9
2024-03-23T03:33:34.523Z,-29
2024-03-23T03:38:54.179Z,-29.7
2024-03-23T03:44:13.128Z,-29.7
2024-03-23T03:49:32.389Z,-29.2
2024-03-23T03:54:51.593Z,-29.6
2024-03-23T04:00:10.827Z,-30.9
2024-03-23T04:05:30.069Z,-29.9
2024-03-23T04:10:49.492Z,-29.3
2024-03-23T04:16:08.696Z,-30
2024-03-23T04:21:28.075Z,-29.3
2024-03-23T04:26:47.499Z,-29
2024-03-23T04:32:06.299Z,-29.8
2024-03-23T04:37:25.116Z,-29.9
2024-03-23T04:42:44.572Z,-29.7
2024-03-23T04:48:03.426Z,-29.2
2024-03-23T04:53:23.388Z,-29.4
2024-03-23T04:58:42.228Z,-30.2
2024-03-23T05:04:01.696Z,-29.8
2024-03-23T05:09:20.455Z,-29.7
2024-03-23T05:14:39.410Z,-29
2024-03-23T05:20:00.379Z,-30.3
2024-03-23T05:25:17.558Z,-30.5
2024-03-23T05:30:36.898Z,-30.4
2024-03-23T05:35:56.424Z,-34.5
2024-03-23T05:41:16.161Z,-29
2024-03-23T05:46:36.428Z,-30.1
2024-03-23T05:51:54.784Z,-26.1
2024-03-23T05:57:14.427Z,-24.2
2024-03-23T06:02:33.888Z,-23.6
2024-03-23T06:07:52.352Z,-22.7
2024-03-23T06:13:12.223Z,-26.7
2024-03-23T06:18:32.624Z,-26.2
2024-03-23T06:23:51.601Z,-17.79
2024-03-23T06:29:10.653Z,-10
2024-03-23T06:34:29.429Z,-12.7
2024-03-23T06:39:48.709Z,-18
2024-03-23T06:45:08.189Z,-4.1
2024-03-23T06:50:27.347Z,-1.6
2024-03-23T06:55:46.327Z,-5
2024-03-23T07:06:25.275Z,-17.4
2024-03-23T07:11:43.723Z,-33.09
2024-03-23T07:17:02.620Z,-25.7
2024-03-23T07:22:22.042Z,-15.5
2024-03-23T07:27:41.513Z,-13.6
2024-03-23T07:38:46.712Z,14.7
2024-03-23T07:44:05.105Z,4.19
2024-03-23T07:49:23.949Z,11.4
2024-03-23T07:54:43.582Z,9.6
2024-03-23T08:00:03.183Z,55.6
2024-03-23T08:05:21.947Z,120.6
2024-03-23T08:10:41.749Z,90.2
2024-03-23T08:21:20.482Z,114.9
2024-03-23T08:27:54.637Z,172.1
2024-03-23T08:31:59.503Z,126.8
2024-03-23T08:37:17.467Z,182.3
2024-03-23T08:42:36.817Z,147.8
2024-03-23T08:47:55.776Z,-30.5
2024-03-23T08:58:33.999Z,305.4
2024-03-23T09:03:52.914Z,116.2
2024-03-23T09:09:12.352Z,112.1
2024-03-23T09:14:31.193Z,115.4
2024-03-23T09:19:50.749Z,96.1
2024-03-23T09:25:10.356Z,142.6
2024-03-23T09:30:29.192Z,95.5
2024-03-23T09:41:07.276Z,140.3
2024-03-23T09:46:26.785Z,219.3
2024-03-23T09:51:46.632Z,190.5
2024-03-23T09:57:05.389Z,118.9
2024-03-23T10:07:44.892Z,-31.4
2024-03-23T10:13:04.519Z,80.6
2024-03-23T10:18:23.369Z,-32.5
2024-03-23T10:23:42.510Z,-40.06
2024-03-23T10:29:02.660Z,-33.7
2024-03-23T10:39:41.301Z,-27.9
2024-03-23T10:44:59.430Z,-30.6
2024-03-23T10:50:18.623Z,-31.2
2024-03-23T10:55:38.296Z,-30.1
2024-03-23T11:00:57.849Z,-29.7
2024-03-23T11:06:17.463Z,67.4
2024-03-23T11:11:35.572Z,-29.5
2024-03-23T11:16:54.673Z,-29.7
2024-03-23T11:22:13.827Z,-32.7
2024-03-23T11:32:53.538Z,-32.09
2024-03-23T11:38:12.266Z,158.3
2024-03-23T11:43:31.128Z,201.8
2024-03-23T11:48:51.532Z,207.5
2024-03-23T11:54:10.949Z,16.9
2024-03-23T11:59:29.231Z,-30.6
2024-03-23T12:04:48.075Z,-34.4
2024-03-23T12:10:07.588Z,77.5
2024-03-23T12:15:26.322Z,-31.2
2024-03-23T12:20:47.643Z,-31.7
2024-03-23T12:26:05.245Z,-31.8
2024-03-23T12:31:24.699Z,-29.8
2024-03-23T12:36:43.585Z,-32
2024-03-23T12:42:02.350Z,-30.8
2024-03-23T12:47:21.175Z,-31.4
2024-03-23T12:52:41.079Z,-31.6
2024-03-23T13:03:18.476Z,70.8
2024-03-23T13:13:57.622Z,-33.3
2024-03-23T13:19:17.150Z,40.8
2024-03-23T13:24:36.649Z,11.5
2024-03-23T13:29:55.653Z,-7
2024-03-23T13:35:14.710Z,-13.9
2024-03-23T13:45:53.465Z,-17.5
2024-03-23T13:51:12.807Z,18.4
2024-03-23T13:56:32.412Z,56
2024-03-23T14:01:54.313Z,-29.9
2024-03-23T14:07:11.540Z,-29
2024-03-23T14:12:33.252Z,-30.1
2024-03-23T14:17:51.887Z,-29.3
2024-03-23T14:23:08.336Z,-29.1
2024-03-23T14:28:27.080Z,-31
2024-03-23T14:33:46.470Z,-31.2
2024-03-23T14:39:05.301Z,-30.2
2024-03-23T14:44:24.608Z,-30.8
2024-03-23T14:49:43.690Z,-31
2024-03-23T14:55:03.121Z,-31.1
2024-03-23T15:00:22.945Z,-31.5
2024-03-23T15:05:41.422Z,85.7
2024-03-23T15:11:00.870Z,-29.1
2024-03-23T15:16:20.230Z,-30.6
2024-03-23T15:21:40.410Z,-30.4
2024-03-23T15:26:58.542Z,-31.3
2024-03-23T15:32:17.663Z,-30.9
2024-03-23T15:37:37.204Z,-31.4
2024-03-23T15:44:11.403Z,-30.7
2024-03-23T15:48:15.017Z,-30.7
2024-03-23T15:53:34.690Z,-31.3
2024-03-23T16:09:31.781Z,-29.4
2024-03-23T16:16:30.311Z,-29
2024-03-23T16:20:10.170Z,-32.7
2024-03-23T16:25:30.267Z,-33.2
2024-03-23T16:30:48.463Z,110.8
2024-03-23T16:36:08.057Z,23
2024-03-23T16:41:27.938Z,-14.3
2024-03-23T16:46:46.149Z,-20.5
2024-03-23T16:52:05.701Z,-22.3
2024-03-23T16:57:24.388Z,-22.5
2024-03-23T17:02:43.922Z,-24
2024-03-23T17:08:13.440Z,-26.7
2024-03-23T17:13:22.453Z,-27.3
2024-03-23T17:18:41.340Z,-29.4
2024-03-23T17:24:01.340Z,-28.6
2024-03-23T17:29:20.254Z,-28.6
2024-03-23T17:34:39.999Z,-28.3
2024-03-23T17:39:58.939Z,-28.3
2024-03-23T17:45:17.966Z,-28.8
2024-03-23T17:50:37.429Z,-28.1
2024-03-23T17:55:56.377Z,-28
2024-03-23T18:01:15.449Z,-28.4
2024-03-23T18:06:34.572Z,-28.5
2024-03-23T18:11:53.558Z,-28
2024-03-23T18:17:12.634Z,-27.7
2024-03-23T18:27:51.062Z,-28.2
2024-03-23T18:33:10.731Z,-28.1
2024-03-23T18:38:29.793Z,-27.5
2024-03-23T18:43:48.954Z,-27.5
2024-03-23T18:49:08.700Z,-27.5
2024-03-23T18:54:28.087Z,-27.9
2024-03-23T18:59:47.653Z,-27.6
2024-03-23T19:05:06.904Z,-29.8
2024-03-23T19:10:26.565Z,-28.1
2024-03-23T19:15:45.787Z,-28
2024-03-23T19:21:05.815Z,-30.6
2024-03-23T19:26:25.214Z,-28.2
2024-03-23T19:31:44.090Z,-27.7
2024-03-23T19:37:03.130Z,-27.7
2024-03-23T19:42:22.169Z,-27.7
2024-03-23T19:47:41.959Z,-27.7
2024-03-23T19:53:01.577Z,-27.8
2024-03-23T19:58:21.088Z,-27.7
2024-03-23T20:03:39.921Z,-28.6
2024-03-23T20:08:58.831Z,-27.7
2024-03-23T20:19:37.642Z,-28
2024-03-23T20:24:56.546Z,-28
2024-03-23T20:30:15.558Z,-27.9
2024-03-23T20:35:34.622Z,-27.9
2024-03-23T20:40:53.840Z,-27.6
2024-03-23T20:51:32.624Z,-27.8
2024-03-23T20:56:51.882Z,-28.3
2024-03-23T21:02:11.609Z,-27.8
2024-03-23T21:07:30.840Z,-28.2
2024-03-23T21:12:50.267Z,-28.1
2024-03-23T21:18:09.898Z,-27.7
2024-03-23T21:23:28.697Z,-28.5
2024-03-23T21:28:48.429Z,-28.5
2024-03-23T21:34:07.670Z,-27.8
2024-03-23T21:39:26.610Z,-31.7
2024-03-23T21:44:46.666Z,-28
2024-03-23T21:50:05.374Z,-32.4
2024-03-23T21:55:24.707Z,-27.9
2024-03-23T22:00:43.564Z,-28.6
2024-03-23T22:06:02.723Z,-27.7
2024-03-23T22:11:21.674Z,-28.1
2024-03-23T22:16:41.123Z,-28
2024-03-23T22:22:00.117Z,-28.1
2024-03-23T22:27:19.431Z,-32
2024-03-23T22:32:38.541Z,-28.4
2024-03-23T22:37:57.881Z,-27.7
2024-03-23T22:43:17.215Z,-28.1
2024-03-23T22:48:36.315Z,-28.4
2024-03-23T22:53:55.425Z,-28
2024-03-23T22:59:14.592Z,-29.8
2024-03-23T23:04:33.647Z,-28.9
2024-03-23T23:09:53.224Z,-28
2024-03-23T23:15:12.843Z,-28.2
2024-03-23T23:20:31.870Z,-28.1
2024-03-23T23:25:51.206Z,-27.9
2024-03-23T23:31:10.896Z,-28.1
2024-03-23T23:36:30.218Z,-27.8
2024-03-23T23:41:49.682Z,-28.1
2024-03-23T23:52:28.425Z,-28.2
2024-03-23T23:57:48.357Z,-28.1
